sensor_id;sensor_type;location;lat;lon;timestamp;P1;durP1;ratioP1;P2;durP2;ratioP2
7843;SDS011;3967;48.702;9.326;2022-12-18T00:01:12;73.13;;;31.48;;
7843;SDS011;3967;48.702;9.326;2022-12-18T00:03:45;77.20;;;31.88;;
7843;SDS011;3967;48.702;9.326;2022-12-18T00:06:12;80.80;;;32.78;;
7843;SDS011;3967;48.702;9.326;2022-12-18T00:08:43;80.35;;;32.95;;
7843;SDS011;3967;48.702;9.326;2022-12-18T00:11:12;76.72;;;33.28;;
7843;SDS011;3967;48.702;9.326;2022-12-18T00:13:43;80.85;;;33.22;;
7843;SDS011;3967;48.702;9.326;2022-12-18T00:16:12;84.13;;;32.20;;
7843;SDS011;3967;48.702;9.326;2022-12-18T00:18:41;87.63;;;32.10;;
7843;SDS011;3967;48.702;9.326;2022-12-18T00:21:09;75.90;;;32.08;;
7843;SDS011;3967;48.702;9.326;2022-12-18T00:23:38;82.65;;;32.78;;
7843;SDS011;3967;48.702;9.326;2022-12-18T00:26:07;78.80;;;33.65;;
7843;SDS011;3967;48.702;9.326;2022-12-18T00:28:42;87.13;;;33.22;;
7843;SDS011;3967;48.702;9.326;2022-12-18T00:31:11;86.18;;;34.13;;
7843;SDS011;3967;48.702;9.326;2022-12-18T00:33:40;76.85;;;30.27;;
7843;SDS011;3967;48.702;9.326;2022-12-18T00:36:15;77.88;;;29.27;;
7843;SDS011;3967;48.702;9.326;2022-12-18T00:38:44;80.82;;;32.17;;
7843;SDS011;3967;48.702;9.326;2022-12-18T00:41:12;74.47;;;30.52;;
7843;SDS011;3967;48.702;9.326;2022-12-18T00:43:40;72.38;;;30.35;;
7843;SDS011;3967;48.702;9.326;2022-12-18T00:46:07;69.38;;;31.67;;
7843;SDS011;3967;48.702;9.326;2022-12-18T00:48:34;71.05;;;30.52;;
7843;SDS011;3967;48.702;9.326;2022-12-18T00:51:01;71.32;;;31.42;;
7843;SDS011;3967;48.702;9.326;2022-12-18T00:53:28;79.97;;;30.98;;
7843;SDS011;3967;48.702;9.326;2022-12-18T00:55:54;68.28;;;29.75;;
7843;SDS011;3967;48.702;9.326;2022-12-18T00:58:21;64.85;;;28.77;;
7843;SDS011;3967;48.702;9.326;2022-12-18T01:00:48;65.68;;;30.95;;
7843;SDS011;3967;48.702;9.326;2022-12-18T01:03:14;63.83;;;29.23;;
7843;SDS011;3967;48.702;9.326;2022-12-18T01:05:42;69.60;;;29.60;;
7843;SDS011;3967;48.702;9.326;2022-12-18T01:08:09;63.78;;;29.17;;
7843;SDS011;3967;48.702;9.326;2022-12-18T01:10:35;68.85;;;29.92;;
7843;SDS011;3967;48.702;9.326;2022-12-18T01:13:02;68.72;;;30.45;;
7843;SDS011;3967;48.702;9.326;2022-12-18T01:15:29;69.55;;;28.33;;
7843;SDS011;3967;48.702;9.326;2022-12-18T01:17:56;65.10;;;28.80;;
7843;SDS011;3967;48.702;9.326;2022-12-18T01:20:22;59.72;;;28.98;;
7843;SDS011;3967;48.702;9.326;2022-12-18T01:22:49;62.90;;;27.92;;
7843;SDS011;3967;48.702;9.326;2022-12-18T01:25:16;60.75;;;26.80;;
7843;SDS011;3967;48.702;9.326;2022-12-18T01:27:42;58.38;;;26.65;;
7843;SDS011;3967;48.702;9.326;2022-12-18T01:30:09;57.88;;;26.00;;
7843;SDS011;3967;48.702;9.326;2022-12-18T01:32:36;58.83;;;26.52;;
7843;SDS011;3967;48.702;9.326;2022-12-18T01:35:03;50.45;;;23.73;;
7843;SDS011;3967;48.702;9.326;2022-12-18T01:37:31;54.42;;;24.88;;
7843;SDS011;3967;48.702;9.326;2022-12-18T01:39:58;52.60;;;24.55;;
7843;SDS011;3967;48.702;9.326;2022-12-18T01:42:24;54.33;;;24.27;;
7843;SDS011;3967;48.702;9.326;2022-12-18T01:52:58;55.78;;;25.33;;
7843;SDS011;3967;48.702;9.326;2022-12-18T01:55:43;54.13;;;22.58;;
7843;SDS011;3967;48.702;9.326;2022-12-18T01:58:18;56.47;;;24.42;;
7843;SDS011;3967;48.702;9.326;2022-12-18T02:00:46;56.85;;;26.73;;
7843;SDS011;3967;48.702;9.326;2022-12-18T02:03:13;58.05;;;26.02;;
7843;SDS011;3967;48.702;9.326;2022-12-18T02:10:47;47.35;;;22.73;;
7843;SDS011;3967;48.702;9.326;2022-12-18T02:22:24;47.83;;;22.10;;
7843;SDS011;3967;48.702;9.326;2022-12-18T02:27:40;49.03;;;22.17;;
7843;SDS011;3967;48.702;9.326;2022-12-18T02:30:09;50.03;;;22.10;;
7843;SDS011;3967;48.702;9.326;2022-12-18T02:32:39;52.72;;;23.70;;
7843;SDS011;3967;48.702;9.326;2022-12-18T02:35:10;58.45;;;26.35;;
7843;SDS011;3967;48.702;9.326;2022-12-18T02:37:40;59.10;;;26.90;;
7843;SDS011;3967;48.702;9.326;2022-12-18T02:40:09;57.45;;;26.63;;
7843;SDS011;3967;48.702;9.326;2022-12-18T02:42:38;53.92;;;24.00;;
7843;SDS011;3967;48.702;9.326;2022-12-18T02:45:05;59.58;;;25.88;;
7843;SDS011;3967;48.702;9.326;2022-12-18T02:47:32;55.60;;;24.73;;
7843;SDS011;3967;48.702;9.326;2022-12-18T03:04:29;54.17;;;23.65;;
7843;SDS011;3967;48.702;9.326;2022-12-18T03:07:04;52.30;;;24.33;;
7843;SDS011;3967;48.702;9.326;2022-12-18T03:09:35;47.30;;;20.70;;
7843;SDS011;3967;48.702;9.326;2022-12-18T03:12:30;53.65;;;23.10;;
7843;SDS011;3967;48.702;9.326;2022-12-18T03:17:44;49.42;;;21.75;;
7843;SDS011;3967;48.702;9.326;2022-12-18T03:20:17;47.53;;;23.35;;
7843;SDS011;3967;48.702;9.326;2022-12-18T03:22:51;51.47;;;22.10;;
7843;SDS011;3967;48.702;9.326;2022-12-18T03:25:29;57.25;;;24.48;;
7843;SDS011;3967;48.702;9.326;2022-12-18T03:27:58;55.45;;;22.48;;
7843;SDS011;3967;48.702;9.326;2022-12-18T03:30:27;48.05;;;21.73;;
7843;SDS011;3967;48.702;9.326;2022-12-18T03:33:00;51.42;;;22.45;;
7843;SDS011;3967;48.702;9.326;2022-12-18T03:35:38;52.63;;;22.23;;
7843;SDS011;3967;48.702;9.326;2022-12-18T03:38:07;46.80;;;21.35;;
7843;SDS011;3967;48.702;9.326;2022-12-18T03:48:52;44.72;;;20.20;;
7843;SDS011;3967;48.702;9.326;2022-12-18T03:51:37;44.00;;;19.73;;
7843;SDS011;3967;48.702;9.326;2022-12-18T03:54:13;47.80;;;20.00;;
7843;SDS011;3967;48.702;9.326;2022-12-18T03:56:44;47.85;;;21.77;;
7843;SDS011;3967;48.702;9.326;2022-12-18T03:59:14;48.80;;;21.63;;
7843;SDS011;3967;48.702;9.326;2022-12-18T04:01:45;45.17;;;20.30;;
7843;SDS011;3967;48.702;9.326;2022-12-18T04:04:14;52.05;;;21.30;;
7843;SDS011;3967;48.702;9.326;2022-12-18T04:06:43;43.50;;;21.15;;
7843;SDS011;3967;48.702;9.326;2022-12-18T04:09:11;48.42;;;21.70;;
7843;SDS011;3967;48.702;9.326;2022-12-18T04:11:39;45.38;;;19.73;;
7843;SDS011;3967;48.702;9.326;2022-12-18T04:14:07;42.55;;;19.83;;
7843;SDS011;3967;48.702;9.326;2022-12-18T04:16:39;43.05;;;20.00;;
7843;SDS011;3967;48.702;9.326;2022-12-18T04:19:06;40.50;;;19.13;;
7843;SDS011;3967;48.702;9.326;2022-12-18T04:21:33;43.03;;;18.73;;
7843;SDS011;3967;48.702;9.326;2022-12-18T04:23:59;41.13;;;19.23;;
7843;SDS011;3967;48.702;9.326;2022-12-18T04:26:26;43.33;;;19.27;;
7843;SDS011;3967;48.702;9.326;2022-12-18T04:28:53;43.17;;;19.75;;
7843;SDS011;3967;48.702;9.326;2022-12-18T04:31:19;39.25;;;18.98;;
7843;SDS011;3967;48.702;9.326;2022-12-18T04:33:46;43.35;;;19.45;;
7843;SDS011;3967;48.702;9.326;2022-12-18T04:36:13;46.42;;;19.08;;
7843;SDS011;3967;48.702;9.326;2022-12-18T04:38:40;43.97;;;18.73;;
7843;SDS011;3967;48.702;9.326;2022-12-18T04:41:06;41.72;;;19.75;;
7843;SDS011;3967;48.702;9.326;2022-12-18T04:43:33;44.72;;;20.35;;
7843;SDS011;3967;48.702;9.326;2022-12-18T04:46:06;45.72;;;19.52;;
7843;SDS011;3967;48.702;9.326;2022-12-18T04:48:34;39.08;;;17.70;;
7843;SDS011;3967;48.702;9.326;2022-12-18T04:51:03;39.55;;;18.85;;
7843;SDS011;3967;48.702;9.326;2022-12-18T04:53:31;45.92;;;20.00;;
7843;SDS011;3967;48.702;9.326;2022-12-18T04:56:05;40.20;;;18.70;;
7843;SDS011;3967;48.702;9.326;2022-12-18T04:58:36;38.20;;;17.77;;
7843;SDS011;3967;48.702;9.326;2022-12-18T05:01:04;44.22;;;19.80;;
7843;SDS011;3967;48.702;9.326;2022-12-18T05:03:31;40.72;;;17.50;;
7843;SDS011;3967;48.702;9.326;2022-12-18T05:05:58;45.03;;;19.25;;
7843;SDS011;3967;48.702;9.326;2022-12-18T05:08:24;39.55;;;18.67;;
7843;SDS011;3967;48.702;9.326;2022-12-18T05:10:58;42.67;;;18.30;;
7843;SDS011;3967;48.702;9.326;2022-12-18T05:13:35;40.47;;;19.45;;
7843;SDS011;3967;48.702;9.326;2022-12-18T05:16:04;39.67;;;18.52;;
7843;SDS011;3967;48.702;9.326;2022-12-18T05:18:32;39.88;;;17.95;;
7843;SDS011;3967;48.702;9.326;2022-12-18T05:20:58;40.22;;;18.08;;
7843;SDS011;3967;48.702;9.326;2022-12-18T05:23:25;36.97;;;16.35;;
7843;SDS011;3967;48.702;9.326;2022-12-18T05:25:56;35.78;;;16.67;;
7843;SDS011;3967;48.702;9.326;2022-12-18T05:28:25;42.40;;;18.10;;
7843;SDS011;3967;48.702;9.326;2022-12-18T05:30:54;39.72;;;18.85;;
7843;SDS011;3967;48.702;9.326;2022-12-18T05:33:22;41.13;;;19.13;;
7843;SDS011;3967;48.702;9.326;2022-12-18T05:35:51;43.88;;;17.45;;
7843;SDS011;3967;48.702;9.326;2022-12-18T05:38:19;37.38;;;18.13;;
7843;SDS011;3967;48.702;9.326;2022-12-18T05:40:47;39.63;;;18.45;;
7843;SDS011;3967;48.702;9.326;2022-12-18T05:43:14;36.92;;;18.10;;
7843;SDS011;3967;48.702;9.326;2022-12-18T05:45:46;37.70;;;17.92;;
7843;SDS011;3967;48.702;9.326;2022-12-18T05:48:14;35.65;;;16.95;;
7843;SDS011;3967;48.702;9.326;2022-12-18T05:50:42;42.75;;;17.98;;
7843;SDS011;3967;48.702;9.326;2022-12-18T05:53:12;36.85;;;17.45;;
7843;SDS011;3967;48.702;9.326;2022-12-18T05:55:40;40.72;;;17.95;;
7843;SDS011;3967;48.702;9.326;2022-12-18T05:58:08;37.75;;;17.77;;
7843;SDS011;3967;48.702;9.326;2022-12-18T06:00:37;32.25;;;16.63;;
7843;SDS011;3967;48.702;9.326;2022-12-18T06:03:09;40.85;;;19.38;;
7843;SDS011;3967;48.702;9.326;2022-12-18T06:05:41;39.92;;;18.95;;
7843;SDS011;3967;48.702;9.326;2022-12-18T06:08:09;37.38;;;17.80;;
7843;SDS011;3967;48.702;9.326;2022-12-18T06:10:36;40.38;;;18.02;;
7843;SDS011;3967;48.702;9.326;2022-12-18T06:13:03;35.53;;;17.92;;
7843;SDS011;3967;48.702;9.326;2022-12-18T06:15:31;40.45;;;17.70;;
7843;SDS011;3967;48.702;9.326;2022-12-18T06:17:58;39.10;;;18.08;;
7843;SDS011;3967;48.702;9.326;2022-12-18T06:20:26;41.45;;;18.05;;
7843;SDS011;3967;48.702;9.326;2022-12-18T06:22:58;37.97;;;17.75;;
7843;SDS011;3967;48.702;9.326;2022-12-18T06:25:25;39.00;;;18.35;;
7843;SDS011;3967;48.702;9.326;2022-12-18T06:27:52;42.45;;;19.00;;
7843;SDS011;3967;48.702;9.326;2022-12-18T06:30:18;38.58;;;17.60;;
7843;SDS011;3967;48.702;9.326;2022-12-18T06:32:45;41.22;;;16.95;;
7843;SDS011;3967;48.702;9.326;2022-12-18T06:35:19;38.97;;;18.42;;
7843;SDS011;3967;48.702;9.326;2022-12-18T06:37:46;38.47;;;17.60;;
7843;SDS011;3967;48.702;9.326;2022-12-18T06:40:13;35.45;;;17.92;;
7843;SDS011;3967;48.702;9.326;2022-12-18T06:42:40;40.70;;;18.20;;
7843;SDS011;3967;48.702;9.326;2022-12-18T06:45:07;38.42;;;18.75;;
7843;SDS011;3967;48.702;9.326;2022-12-18T06:47:34;34.67;;;18.13;;
7843;SDS011;3967;48.702;9.326;2022-12-18T06:50:00;42.30;;;19.13;;
7843;SDS011;3967;48.702;9.326;2022-12-18T06:52:27;39.90;;;18.40;;
7843;SDS011;3967;48.702;9.326;2022-12-18T06:54:54;40.78;;;17.65;;
7843;SDS011;3967;48.702;9.326;2022-12-18T06:57:20;39.10;;;17.02;;
7843;SDS011;3967;48.702;9.326;2022-12-18T06:59:47;41.92;;;18.70;;
7843;SDS011;3967;48.702;9.326;2022-12-18T07:02:14;41.75;;;17.95;;
7843;SDS011;3967;48.702;9.326;2022-12-18T07:04:40;36.67;;;17.83;;
7843;SDS011;3967;48.702;9.326;2022-12-18T07:07:07;47.22;;;19.90;;
7843;SDS011;3967;48.702;9.326;2022-12-18T07:09:34;47.60;;;20.80;;
7843;SDS011;3967;48.702;9.326;2022-12-18T07:12:01;42.63;;;19.35;;
7843;SDS011;3967;48.702;9.326;2022-12-18T07:14:27;41.42;;;18.63;;
7843;SDS011;3967;48.702;9.326;2022-12-18T07:16:55;40.35;;;20.25;;
7843;SDS011;3967;48.702;9.326;2022-12-18T07:19:21;38.50;;;18.42;;
7843;SDS011;3967;48.702;9.326;2022-12-18T07:21:51;39.17;;;19.27;;
7843;SDS011;3967;48.702;9.326;2022-12-18T07:24:17;45.25;;;18.98;;
7843;SDS011;3967;48.702;9.326;2022-12-18T07:26:47;40.92;;;18.10;;
7843;SDS011;3967;48.702;9.326;2022-12-18T07:29:14;41.30;;;19.13;;
7843;SDS011;3967;48.702;9.326;2022-12-18T07:31:41;42.15;;;18.80;;
7843;SDS011;3967;48.702;9.326;2022-12-18T07:34:11;38.15;;;17.98;;
7843;SDS011;3967;48.702;9.326;2022-12-18T07:36:39;43.15;;;20.13;;
7843;SDS011;3967;48.702;9.326;2022-12-18T07:39:05;43.38;;;21.60;;
7843;SDS011;3967;48.702;9.326;2022-12-18T07:41:33;50.05;;;23.00;;
7843;SDS011;3967;48.702;9.326;2022-12-18T07:43:59;48.58;;;23.15;;
7843;SDS011;3967;48.702;9.326;2022-12-18T07:46:26;45.95;;;20.25;;
7843;SDS011;3967;48.702;9.326;2022-12-18T07:48:53;44.75;;;19.73;;
7843;SDS011;3967;48.702;9.326;2022-12-18T07:51:19;39.03;;;19.15;;
7843;SDS011;3967;48.702;9.326;2022-12-18T07:53:46;39.78;;;18.85;;
7843;SDS011;3967;48.702;9.326;2022-12-18T07:56:18;44.83;;;19.60;;
7843;SDS011;3967;48.702;9.326;2022-12-18T07:58:58;43.10;;;19.20;;
7843;SDS011;3967;48.702;9.326;2022-12-18T08:01:25;43.17;;;19.40;;
7843;SDS011;3967;48.702;9.326;2022-12-18T08:03:53;41.55;;;20.35;;
7843;SDS011;3967;48.702;9.326;2022-12-18T08:06:20;43.25;;;20.48;;
7843;SDS011;3967;48.702;9.326;2022-12-18T08:08:53;39.83;;;19.10;;
7843;SDS011;3967;48.702;9.326;2022-12-18T08:11:21;44.33;;;20.15;;
7843;SDS011;3967;48.702;9.326;2022-12-18T08:13:51;43.40;;;18.60;;
7843;SDS011;3967;48.702;9.326;2022-12-18T08:16:18;40.47;;;18.92;;
7843;SDS011;3967;48.702;9.326;2022-12-18T08:18:51;38.38;;;17.77;;
7843;SDS011;3967;48.702;9.326;2022-12-18T08:21:22;40.95;;;18.77;;
7843;SDS011;3967;48.702;9.326;2022-12-18T08:23:51;40.25;;;17.92;;
7843;SDS011;3967;48.702;9.326;2022-12-18T08:26:19;45.28;;;20.08;;
7843;SDS011;3967;48.702;9.326;2022-12-18T08:28:47;35.90;;;17.70;;
7843;SDS011;3967;48.702;9.326;2022-12-18T08:31:15;47.22;;;19.48;;
7843;SDS011;3967;48.702;9.326;2022-12-18T08:33:42;44.67;;;19.30;;
7843;SDS011;3967;48.702;9.326;2022-12-18T08:36:09;47.20;;;20.23;;
7843;SDS011;3967;48.702;9.326;2022-12-18T08:38:36;42.10;;;19.90;;
7843;SDS011;3967;48.702;9.326;2022-12-18T08:41:08;47.53;;;20.95;;
7843;SDS011;3967;48.702;9.326;2022-12-18T08:43:36;45.58;;;19.27;;
7843;SDS011;3967;48.702;9.326;2022-12-18T08:46:21;44.50;;;19.75;;
7843;SDS011;3967;48.702;9.326;2022-12-18T08:48:50;41.38;;;20.73;;
7843;SDS011;3967;48.702;9.326;2022-12-18T08:51:18;47.95;;;20.70;;
7843;SDS011;3967;48.702;9.326;2022-12-18T08:53:45;41.15;;;19.40;;
7843;SDS011;3967;48.702;9.326;2022-12-18T08:56:13;43.25;;;20.83;;
7843;SDS011;3967;48.702;9.326;2022-12-18T08:58:40;43.15;;;19.75;;
7843;SDS011;3967;48.702;9.326;2022-12-18T09:01:08;45.13;;;21.08;;
7843;SDS011;3967;48.702;9.326;2022-12-18T09:03:36;45.38;;;21.38;;
7843;SDS011;3967;48.702;9.326;2022-12-18T09:06:05;43.80;;;20.75;;
7843;SDS011;3967;48.702;9.326;2022-12-18T09:08:32;47.30;;;21.02;;
7843;SDS011;3967;48.702;9.326;2022-12-18T09:11:00;46.72;;;20.90;;
7843;SDS011;3967;48.702;9.326;2022-12-18T09:13:27;40.30;;;20.27;;
7843;SDS011;3967;48.702;9.326;2022-12-18T09:15:54;45.50;;;21.52;;
7843;SDS011;3967;48.702;9.326;2022-12-18T09:18:22;39.15;;;20.02;;
7843;SDS011;3967;48.702;9.326;2022-12-18T09:20:49;47.58;;;21.63;;
7843;SDS011;3967;48.702;9.326;2022-12-18T09:23:18;45.83;;;21.85;;
7843;SDS011;3967;48.702;9.326;2022-12-18T09:25:45;41.95;;;22.10;;
7843;SDS011;3967;48.702;9.326;2022-12-18T09:28:17;46.80;;;21.27;;
7843;SDS011;3967;48.702;9.326;2022-12-18T09:30:46;46.72;;;22.73;;
7843;SDS011;3967;48.702;9.326;2022-12-18T09:33:15;46.67;;;21.55;;
7843;SDS011;3967;48.702;9.326;2022-12-18T09:35:43;49.60;;;21.92;;
7843;SDS011;3967;48.702;9.326;2022-12-18T09:38:12;44.67;;;21.85;;
7843;SDS011;3967;48.702;9.326;2022-12-18T09:40:44;41.97;;;20.50;;
7843;SDS011;3967;48.702;9.326;2022-12-18T09:43:24;43.25;;;22.05;;
7843;SDS011;3967;48.702;9.326;2022-12-18T09:45:58;45.67;;;22.88;;
7843;SDS011;3967;48.702;9.326;2022-12-18T09:48:30;50.83;;;23.23;;
7843;SDS011;3967;48.702;9.326;2022-12-18T09:51:02;58.47;;;23.77;;
7843;SDS011;3967;48.702;9.326;2022-12-18T09:53:35;49.28;;;22.92;;
7843;SDS011;3967;48.702;9.326;2022-12-18T09:56:05;47.40;;;21.80;;
7843;SDS011;3967;48.702;9.326;2022-12-18T09:58:41;52.90;;;24.08;;
7843;SDS011;3967;48.702;9.326;2022-12-18T10:01:15;46.92;;;23.13;;
7843;SDS011;3967;48.702;9.326;2022-12-18T10:03:47;52.88;;;24.85;;
7843;SDS011;3967;48.702;9.326;2022-12-18T10:06:25;47.45;;;23.50;;
7843;SDS011;3967;48.702;9.326;2022-12-18T10:09:07;49.97;;;23.73;;
7843;SDS011;3967;48.702;9.326;2022-12-18T10:14:47;50.17;;;23.42;;
7843;SDS011;3967;48.702;9.326;2022-12-18T10:20:13;49.25;;;24.00;;
7843;SDS011;3967;48.702;9.326;2022-12-18T10:28:35;49.20;;;24.40;;
7843;SDS011;3967;48.702;9.326;2022-12-18T10:31:23;50.05;;;24.52;;
7843;SDS011;3967;48.702;9.326;2022-12-18T10:33:50;49.22;;;23.15;;
7843;SDS011;3967;48.702;9.326;2022-12-18T10:36:22;50.08;;;24.42;;
7843;SDS011;3967;48.702;9.326;2022-12-18T10:38:50;56.55;;;25.38;;
7843;SDS011;3967;48.702;9.326;2022-12-18T10:43:46;51.45;;;25.27;;
7843;SDS011;3967;48.702;9.326;2022-12-18T10:46:17;60.15;;;26.55;;
7843;SDS011;3967;48.702;9.326;2022-12-18T10:54:07;58.33;;;26.60;;
7843;SDS011;3967;48.702;9.326;2022-12-18T10:56:45;49.95;;;24.23;;
7843;SDS011;3967;48.702;9.326;2022-12-18T10:59:16;52.28;;;23.85;;
7843;SDS011;3967;48.702;9.326;2022-12-18T11:04:17;56.53;;;25.95;;
7843;SDS011;3967;48.702;9.326;2022-12-18T11:06:56;50.17;;;24.77;;
7843;SDS011;3967;48.702;9.326;2022-12-18T11:09:30;55.83;;;26.23;;
7843;SDS011;3967;48.702;9.326;2022-12-18T11:12:17;51.95;;;24.85;;
7843;SDS011;3967;48.702;9.326;2022-12-18T11:14:52;53.45;;;25.15;;
7843;SDS011;3967;48.702;9.326;2022-12-18T11:19:57;57.63;;;27.15;;
7843;SDS011;3967;48.702;9.326;2022-12-18T11:22:28;55.95;;;25.50;;
7843;SDS011;3967;48.702;9.326;2022-12-18T11:25:00;55.67;;;25.05;;
7843;SDS011;3967;48.702;9.326;2022-12-18T11:27:55;53.25;;;26.20;;
7843;SDS011;3967;48.702;9.326;2022-12-18T11:33:08;50.70;;;25.10;;
7843;SDS011;3967;48.702;9.326;2022-12-18T11:35:44;49.67;;;24.27;;
7843;SDS011;3967;48.702;9.326;2022-12-18T11:38:26;55.47;;;26.05;;
7843;SDS011;3967;48.702;9.326;2022-12-18T11:41:15;56.13;;;25.85;;
7843;SDS011;3967;48.702;9.326;2022-12-18T11:44:15;58.45;;;24.80;;
7843;SDS011;3967;48.702;9.326;2022-12-18T11:47:00;52.03;;;25.27;;
7843;SDS011;3967;48.702;9.326;2022-12-18T11:49:35;55.70;;;25.58;;
7843;SDS011;3967;48.702;9.326;2022-12-18T11:54:55;60.28;;;27.08;;
7843;SDS011;3967;48.702;9.326;2022-12-18T12:00:07;57.22;;;27.10;;
7843;SDS011;3967;48.702;9.326;2022-12-18T12:02:42;56.80;;;25.80;;
7843;SDS011;3967;48.702;9.326;2022-12-18T12:21:59;56.85;;;26.65;;
7843;SDS011;3967;48.702;9.326;2022-12-18T12:33:18;54.60;;;26.10;;
7843;SDS011;3967;48.702;9.326;2022-12-18T12:38:40;57.78;;;27.60;;
7843;SDS011;3967;48.702;9.326;2022-12-18T12:41:18;53.92;;;27.20;;
7843;SDS011;3967;48.702;9.326;2022-12-18T12:44:20;55.88;;;25.98;;
7843;SDS011;3967;48.702;9.326;2022-12-18T12:46:55;61.92;;;28.67;;
7843;SDS011;3967;48.702;9.326;2022-12-18T12:49:26;57.70;;;27.50;;
7843;SDS011;3967;48.702;9.326;2022-12-18T12:52:12;64.00;;;28.40;;
7843;SDS011;3967;48.702;9.326;2022-12-18T12:54:43;57.85;;;27.52;;
7843;SDS011;3967;48.702;9.326;2022-12-18T12:57:13;56.35;;;26.80;;
7843;SDS011;3967;48.702;9.326;2022-12-18T13:05:46;63.33;;;30.23;;
7843;SDS011;3967;48.702;9.326;2022-12-18T13:08:50;60.55;;;26.40;;
7843;SDS011;3967;48.702;9.326;2022-12-18T13:11:47;45.23;;;22.33;;
7843;SDS011;3967;48.702;9.326;2022-12-18T13:20:02;57.93;;;26.33;;
7843;SDS011;3967;48.702;9.326;2022-12-18T13:22:39;47.97;;;23.23;;
7843;SDS011;3967;48.702;9.326;2022-12-18T13:43:45;50.03;;;23.77;;
7843;SDS011;3967;48.702;9.326;2022-12-18T13:48:51;49.10;;;23.20;;
7843;SDS011;3967;48.702;9.326;2022-12-18T13:51:24;54.00;;;25.83;;
7843;SDS011;3967;48.702;9.326;2022-12-18T13:53:56;54.73;;;27.47;;
7843;SDS011;3967;48.702;9.326;2022-12-18T13:56:45;56.20;;;25.93;;
7843;SDS011;3967;48.702;9.326;2022-12-18T14:02:05;62.53;;;27.73;;
7843;SDS011;3967;48.702;9.326;2022-12-18T14:04:44;59.50;;;29.93;;
7843;SDS011;3967;48.702;9.326;2022-12-18T14:07:17;60.73;;;30.30;;
7843;SDS011;3967;48.702;9.326;2022-12-18T14:10:03;60.03;;;29.60;;
7843;SDS011;3967;48.702;9.326;2022-12-18T14:12:50;49.10;;;24.53;;
7843;SDS011;3967;48.702;9.326;2022-12-18T14:15:46;56.57;;;27.20;;
7843;SDS011;3967;48.702;9.326;2022-12-18T14:18:19;63.47;;;30.27;;
7843;SDS011;3967;48.702;9.326;2022-12-18T14:20:47;59.90;;;25.87;;
7843;SDS011;3967;48.702;9.326;2022-12-18T14:25:56;58.57;;;27.47;;
7843;SDS011;3967;48.702;9.326;2022-12-18T14:28:30;52.67;;;25.90;;
7843;SDS011;3967;48.702;9.326;2022-12-18T14:30:57;59.23;;;26.33;;
7843;SDS011;3967;48.702;9.326;2022-12-18T14:33:25;51.20;;;25.40;;
7843;SDS011;3967;48.702;9.326;2022-12-18T14:36:00;56.07;;;28.47;;
7843;SDS011;3967;48.702;9.326;2022-12-18T14:41:00;58.67;;;28.60;;
7843;SDS011;3967;48.702;9.326;2022-12-18T14:43:50;62.17;;;29.37;;
7843;SDS011;3967;48.702;9.326;2022-12-18T14:48:54;61.20;;;29.17;;
7843;SDS011;3967;48.702;9.326;2022-12-18T14:51:23;57.07;;;30.27;;
7843;SDS011;3967;48.702;9.326;2022-12-18T14:53:55;62.20;;;30.77;;
7843;SDS011;3967;48.702;9.326;2022-12-18T14:56:27;57.07;;;29.73;;
7843;SDS011;3967;48.702;9.326;2022-12-18T14:59:04;59.27;;;29.13;;
7843;SDS011;3967;48.702;9.326;2022-12-18T15:01:47;58.67;;;29.93;;
7843;SDS011;3967;48.702;9.326;2022-12-18T15:04:38;61.40;;;30.00;;
7843;SDS011;3967;48.702;9.326;2022-12-18T15:07:20;54.80;;;29.13;;
7843;SDS011;3967;48.702;9.326;2022-12-18T15:12:43;57.67;;;29.50;;
7843;SDS011;3967;48.702;9.326;2022-12-18T15:20:41;59.47;;;30.60;;
7843;SDS011;3967;48.702;9.326;2022-12-18T15:25:47;65.43;;;32.43;;
7843;SDS011;3967;48.702;9.326;2022-12-18T15:28:30;64.23;;;30.87;;
7843;SDS011;3967;48.702;9.326;2022-12-18T15:33:42;66.83;;;33.67;;
7843;SDS011;3967;48.702;9.326;2022-12-18T15:36:19;58.60;;;31.33;;
7843;SDS011;3967;48.702;9.326;2022-12-18T15:38:52;76.60;;;36.10;;
7843;SDS011;3967;48.702;9.326;2022-12-18T15:41:31;71.50;;;35.37;;
7843;SDS011;3967;48.702;9.326;2022-12-18T15:44:01;72.80;;;37.00;;
7843;SDS011;3967;48.702;9.326;2022-12-18T15:46:29;68.57;;;35.75;;
7843;SDS011;3967;48.702;9.326;2022-12-18T15:48:57;69.82;;;33.92;;
7843;SDS011;3967;48.702;9.326;2022-12-18T15:51:28;75.87;;;37.53;;
7843;SDS011;3967;48.702;9.326;2022-12-18T15:54:02;72.70;;;35.30;;
7843;SDS011;3967;48.702;9.326;2022-12-18T15:56:31;69.60;;;35.73;;
7843;SDS011;3967;48.702;9.326;2022-12-18T15:59:18;76.90;;;37.13;;
7843;SDS011;3967;48.702;9.326;2022-12-18T16:01:46;64.17;;;33.93;;
7843;SDS011;3967;48.702;9.326;2022-12-18T16:04:15;67.32;;;35.08;;
7843;SDS011;3967;48.702;9.326;2022-12-18T16:06:46;70.40;;;36.75;;
7843;SDS011;3967;48.702;9.326;2022-12-18T16:09:33;62.63;;;33.13;;
7843;SDS011;3967;48.702;9.326;2022-12-18T16:12:00;64.03;;;32.27;;
7843;SDS011;3967;48.702;9.326;2022-12-18T16:14:28;63.67;;;31.63;;
7843;SDS011;3967;48.702;9.326;2022-12-18T16:16:59;68.30;;;35.07;;
7843;SDS011;3967;48.702;9.326;2022-12-18T16:19:28;66.80;;;33.53;;
7843;SDS011;3967;48.702;9.326;2022-12-18T16:21:56;64.00;;;32.10;;
7843;SDS011;3967;48.702;9.326;2022-12-18T16:24:25;62.10;;;31.10;;
7843;SDS011;3967;48.702;9.326;2022-12-18T16:26:54;56.53;;;30.23;;
7843;SDS011;3967;48.702;9.326;2022-12-18T16:29:25;56.43;;;28.23;;
7843;SDS011;3967;48.702;9.326;2022-12-18T16:31:57;65.17;;;32.60;;
7843;SDS011;3967;48.702;9.326;2022-12-18T16:34:26;68.43;;;32.13;;
7843;SDS011;3967;48.702;9.326;2022-12-18T16:36:58;67.53;;;33.30;;
7843;SDS011;3967;48.702;9.326;2022-12-18T16:39:31;59.08;;;28.40;;
7843;SDS011;3967;48.702;9.326;2022-12-18T16:42:00;64.37;;;30.40;;
7843;SDS011;3967;48.702;9.326;2022-12-18T16:44:33;61.70;;;31.37;;
7843;SDS011;3967;48.702;9.326;2022-12-18T16:47:01;60.03;;;30.00;;
7843;SDS011;3967;48.702;9.326;2022-12-18T16:49:28;56.90;;;29.63;;
7843;SDS011;3967;48.702;9.326;2022-12-18T16:51:55;74.50;;;32.35;;
7843;SDS011;3967;48.702;9.326;2022-12-18T16:54:22;65.27;;;32.73;;
7843;SDS011;3967;48.702;9.326;2022-12-18T16:56:50;61.88;;;30.48;;
7843;SDS011;3967;48.702;9.326;2022-12-18T16:59:17;68.07;;;34.15;;
7843;SDS011;3967;48.702;9.326;2022-12-18T17:01:45;60.43;;;30.60;;
7843;SDS011;3967;48.702;9.326;2022-12-18T17:04:12;62.33;;;30.17;;
7843;SDS011;3967;48.702;9.326;2022-12-18T17:06:45;65.20;;;31.35;;
7843;SDS011;3967;48.702;9.326;2022-12-18T17:09:17;59.63;;;29.02;;
7843;SDS011;3967;48.702;9.326;2022-12-18T17:11:51;67.65;;;32.75;;
7843;SDS011;3967;48.702;9.326;2022-12-18T17:14:20;65.63;;;32.78;;
7843;SDS011;3967;48.702;9.326;2022-12-18T17:16:48;65.35;;;31.95;;
7843;SDS011;3967;48.702;9.326;2022-12-18T17:19:36;65.13;;;31.93;;
7843;SDS011;3967;48.702;9.326;2022-12-18T17:22:03;70.60;;;32.90;;
7843;SDS011;3967;48.702;9.326;2022-12-18T17:24:30;61.17;;;32.20;;
7843;SDS011;3967;48.702;9.326;2022-12-18T17:27:00;68.68;;;33.60;;
7843;SDS011;3967;48.702;9.326;2022-12-18T17:29:28;64.88;;;31.15;;
7843;SDS011;3967;48.702;9.326;2022-12-18T17:31:55;72.10;;;33.35;;
7843;SDS011;3967;48.702;9.326;2022-12-18T17:34:23;89.60;;;42.63;;
7843;SDS011;3967;48.702;9.326;2022-12-18T17:36:50;73.88;;;32.60;;
7843;SDS011;3967;48.702;9.326;2022-12-18T17:39:18;61.80;;;32.20;;
7843;SDS011;3967;48.702;9.326;2022-12-18T17:41:45;64.60;;;31.25;;
7843;SDS011;3967;48.702;9.326;2022-12-18T17:44:13;74.47;;;34.70;;
7843;SDS011;3967;48.702;9.326;2022-12-18T17:46:40;96.20;;;44.10;;
7843;SDS011;3967;48.702;9.326;2022-12-18T17:49:07;81.63;;;38.00;;
7843;SDS011;3967;48.702;9.326;2022-12-18T17:51:34;75.63;;;36.63;;
7843;SDS011;3967;48.702;9.326;2022-12-18T17:54:01;64.05;;;31.48;;
7843;SDS011;3967;48.702;9.326;2022-12-18T17:56:28;66.68;;;32.00;;
7843;SDS011;3967;48.702;9.326;2022-12-18T17:58:55;68.30;;;32.38;;